Time;durP1;ratioP1;P1;durP2;ratioP2;P2;SDS_P1;SDS_P2;PMS_P1;PMS_P2;Temp;Humidity;BMP_temperature;BMP_pressure;BME280_temperature;BME280_humidity;BME280_pressure;Samples;Min_cycle;Max_cycle;Signal;HPM_P1;HPM_P2
2022/11/07 00:02:08;;;;;;;7.13;2.70;;;10.20;99.90;;;;;;4940329;29;20127;-73
2022/11/07 00:04:34;;;;;;;5.78;2.10;;;10.20;99.90;;;;;;4924457;29;20050;-73
2022/11/07 00:07:01;;;;;;;4.72;2.35;;;10.30;99.90;;;;;;4908835;29;20047;-73
2022/11/07 00:09:27;;;;;;;4.72;2.20;;;10.30;99.90;;;;;;4940157;29;20047;-73
2022/11/07 00:11:52;;;;;;;5.90;2.60;;;10.40;99.90;;;;;;4940110;29;20035;-73
2022/11/07 00:14:19;;;;;;;3.95;2.17;;;10.40;99.90;;;;;;4940032;29;20061;-73
2022/11/07 00:16:46;;;;;;;5.90;2.67;;;10.40;99.90;;;;;;4924353;29;20499;-73
2022/11/07 00:19:14;;;;;;;5.20;2.60;;;10.40;99.90;;;;;;4940067;29;20114;-73
2022/11/07 00:21:40;;;;;;;3.58;2.55;;;10.40;99.90;;;;;;4940276;29;20035;-73
2022/11/07 00:24:07;;;;;;;15.70;2.45;;;10.50;99.90;;;;;;4955951;28;20045;-73
2022/11/07 00:26:33;;;;;;;3.92;2.50;;;10.50;99.90;;;;;;4939879;29;20087;-72
2022/11/07 00:28:58;;;;;;;3.58;2.17;;;10.50;99.90;;;;;;4939806;29;20039;-72
2022/11/07 00:31:24;;;;;;;3.38;1.85;;;10.60;99.90;;;;;;4940065;29;20054;-72
2022/11/07 00:33:50;;;;;;;8.02;2.28;;;10.60;99.90;;;;;;4939823;29;20195;-72
2022/11/07 00:36:19;;;;;;;2.35;1.80;;;10.70;99.90;;;;;;4939556;29;20102;-73
2022/11/07 00:38:45;;;;;;;3.40;2.25;;;10.70;99.90;;;;;;4939893;29;20074;-73
2022/11/07 00:41:11;;;;;;;5.15;2.28;;;10.70;99.90;;;;;;4923772;29;20553;-73
2022/11/07 00:43:37;;;;;;;7.30;1.92;;;10.60;99.90;;;;;;4939855;29;20031;-73
2022/11/07 00:46:04;;;;;;;2.67;1.92;;;10.70;99.90;;;;;;4939809;29;20043;-72
2022/11/07 00:48:30;;;;;;;2.67;1.60;;;10.70;99.90;;;;;;4939485;29;20127;-72
2022/11/07 00:50:56;;;;;;;6.15;2.35;;;10.70;99.90;;;;;;4908158;29;20082;-73
2022/11/07 00:53:22;;;;;;;4.07;2.00;;;10.60;99.90;;;;;;4907910;29;20053;-72
2022/11/07 00:55:48;;;;;;;3.65;2.10;;;10.70;99.90;;;;;;4939243;29;20051;-72
2022/11/07 00:58:15;;;;;;;14.52;2.63;;;10.70;99.90;;;;;;4939562;29;20050;-72
2022/11/07 01:00:41;;;;;;;3.53;1.83;;;10.70;99.90;;;;;;4939337;29;20130;-72
2022/11/07 01:05:59;;;;;;;3.35;2.05;;;10.70;99.90;;;;;;4939161;29;20039;-72
2022/11/07 01:08:25;;;;;;;5.22;2.08;;;10.70;99.90;;;;;;4939049;29;20043;-72
2022/11/07 01:10:51;;;;;;;4.28;2.42;;;10.70;99.90;;;;;;4939403;29;20074;-72
2022/11/07 01:13:16;;;;;;;6.45;1.98;;;10.70;99.90;;;;;;4938981;29;20515;-72
2022/11/07 01:15:42;;;;;;;4.75;1.83;;;10.70;99.90;;;;;;4938984;29;20085;-72
2022/11/07 01:18:08;;;;;;;4.38;1.92;;;10.80;99.90;;;;;;4938938;29;20050;-72
2022/11/07 01:20:33;;;;;;;7.07;2.10;;;10.80;99.90;;;;;;4923103;29;20035;-72
2022/11/07 01:22:59;;;;;;;3.53;1.83;;;10.80;99.90;;;;;;4939136;29;20073;-72
2022/11/07 01:25:25;;;;;;;3.65;1.90;;;10.80;99.90;;;;;;4923019;29;20039;-73
2022/11/07 01:27:50;;;;;;;5.47;2.00;;;10.90;99.90;;;;;;4922915;29;20580;-73
2022/11/07 01:30:16;;;;;;;3.47;1.88;;;10.90;99.90;;;;;;4938733;29;20047;-73
2022/11/07 01:32:42;;;;;;;6.82;2.25;;;10.90;99.90;;;;;;4907401;28;20043;-72
2022/11/07 01:35:08;;;;;;;4.55;2.08;;;10.90;99.90;;;;;;4938248;29;20051;-73
2022/11/07 01:37:33;;;;;;;2.60;1.88;;;10.90;99.90;;;;;;4938485;29;20114;-73
2022/11/07 01:39:59;;;;;;;4.20;1.88;;;11.30;99.90;;;;;;4907223;29;20039;-72
2022/11/07 01:42:25;;;;;;;5.65;1.73;;;10.80;99.90;;;;;;4938534;29;20039;-73
2022/11/07 01:44:55;;;;;;;4.60;1.90;;;11.00;99.90;;;;;;4922695;29;20126;-72
2022/11/07 01:47:23;;;;;;;4.43;1.73;;;11.10;99.90;;;;;;4938407;29;20102;-72
2022/11/07 01:49:49;;;;;;;2.65;1.73;;;11.10;99.90;;;;;;4938662;29;20353;-72
2022/11/07 01:52:24;;;;;;;2.97;1.90;;;11.00;99.90;;;;;;4922645;29;20074;-72
2022/11/07 01:55:11;;;;;;;4.65;1.70;;;11.00;99.90;;;;;;4938307;29;20043;-73
2022/11/07 01:57:45;;;;;;;4.15;2.00;;;11.00;99.90;;;;;;4922471;29;20050;-73
2022/11/07 02:00:14;;;;;;;2.50;1.70;;;11.00;99.90;;;;;;4922433;29;20043;-72
2022/11/07 02:02:41;;;;;;;2.28;1.58;;;10.90;99.90;;;;;;4938193;29;20043;-74
2022/11/07 02:05:08;;;;;;;3.30;2.15;;;11.00;99.90;;;;;;4938144;29;20039;-73
2022/11/07 02:07:36;;;;;;;4.10;1.63;;;11.00;99.90;;;;;;4938221;29;20075;-72
2022/11/07 02:10:03;;;;;;;3.95;1.77;;;11.10;99.90;;;;;;4938340;29;20514;-73
2022/11/07 02:12:28;;;;;;;4.40;2.05;;;11.00;99.90;;;;;;4922271;29;20054;-73
2022/11/07 02:14:55;;;;;;;2.90;1.70;;;11.10;99.90;;;;;;4922577;29;20051;-73
2022/11/07 02:17:21;;;;;;;7.20;2.10;;;11.10;99.90;;;;;;4937893;29;20105;-73
2022/11/07 02:19:53;;;;;;;3.38;1.77;;;11.30;99.90;;;;;;4938003;29;20102;-73
2022/11/07 02:22:33;;;;;;;6.63;1.60;;;11.20;99.90;;;;;;4922100;29;20039;-73
2022/11/07 02:25:02;;;;;;;3.35;2.30;;;10.90;99.90;;;;;;4937956;29;20047;-73
2022/11/07 02:27:30;;;;;;;2.78;1.75;;;11.00;99.90;;;;;;4937930;29;20058;-73
2022/11/07 02:30:20;;;;;;;4.60;2.22;;;11.00;99.90;;;;;;4937943;29;20047;-73
2022/11/07 02:32:46;;;;;;;2.20;1.65;;;11.00;99.90;;;;;;4937967;28;20078;-73
2022/11/07 02:35:41;;;;;;;3.75;1.80;;;11.00;99.90;;;;;;4937905;29;20562;-73
2022/11/07 02:38:14;;;;;;;2.45;1.40;;;11.00;99.90;;;;;;4937716;29;20050;-73
2022/11/07 02:40:43;;;;;;;3.17;1.58;;;11.00;99.90;;;;;;4937894;29;20070;-73
2022/11/07 02:43:11;;;;;;;2.95;1.90;;;11.00;99.90;;;;;;4938058;29;20386;-73
2022/11/07 02:45:40;;;;;;;3.15;1.80;;;11.10;99.90;;;;;;4938031;29;20114;-73
2022/11/07 02:48:06;;;;;;;1.95;1.63;;;11.40;99.90;;;;;;4940644;29;20043;-72
2022/11/07 02:50:32;;;;;;;5.10;1.98;;;11.10;99.90;;;;;;4941913;29;20043;-73
2022/11/07 02:52:58;;;;;;;5.55;1.92;;;11.10;99.90;;;;;;4926007;29;20043;-73
2022/11/07 02:55:24;;;;;;;2.22;1.75;;;;;;;;;;4941448;29;20085;-73
2022/11/07 02:57:50;;;;;;;3.35;2.13;;;11.10;99.90;;;;;;4925586;29;20046;-73
2022/11/07 03:00:16;;;;;;;2.75;1.67;;;11.10;99.90;;;;;;4941723;29;20051;-73
2022/11/07 03:02:45;;;;;;;2.42;1.80;;;11.10;99.90;;;;;;4925855;29;20035;-71
2022/11/07 03:05:13;;;;;;;2.63;1.50;;;11.10;99.90;;;;;;4941396;29;20170;-70
2022/11/07 03:07:41;;;;;;;4.15;1.80;;;11.10;99.90;;;;;;4925980;29;20129;-70
2022/11/07 03:10:08;;;;;;;4.50;2.10;;;11.40;99.90;;;;;;4941490;29;20066;-70
2022/11/07 03:12:33;;;;;;;3.85;1.63;;;11.10;99.90;;;;;;4941272;29;20130;-71
2022/11/07 03:14:59;;;;;;;3.33;2.08;;;11.10;99.90;;;;;;4909735;29;20126;-70
2022/11/07 03:17:24;;;;;;;4.15;1.90;;;11.10;99.90;;;;;;4909587;29;20518;-70
2022/11/07 03:19:50;;;;;;;3.38;1.73;;;11.10;99.90;;;;;;4909763;29;20514;-70
2022/11/07 03:22:16;;;;;;;3.17;1.58;;;11.10;99.90;;;;;;4925241;29;20047;-70
2022/11/07 03:24:41;;;;;;;2.95;1.98;;;11.00;99.90;;;;;;4925239;29;20047;-70
2022/11/07 03:27:07;;;;;;;4.82;1.60;;;11.00;99.90;;;;;;4925494;29;20051;-70
2022/11/07 03:29:33;;;;;;;2.70;1.83;;;10.90;99.90;;;;;;4940931;29;20046;-70
2022/11/07 03:31:58;;;;;;;4.78;2.17;;;10.90;99.90;;;;;;4940940;29;20079;-70
2022/11/07 03:34:24;;;;;;;5.70;2.35;;;11.10;99.90;;;;;;4924889;29;20554;-70
2022/11/07 03:36:50;;;;;;;2.67;1.30;;;10.90;99.90;;;;;;4940711;29;20418;-70
2022/11/07 03:39:15;;;;;;;4.00;1.88;;;10.70;99.90;;;;;;4940802;29;20039;-70
2022/11/07 03:41:41;;;;;;;2.13;1.65;;;10.90;99.90;;;;;;4940686;29;20410;-70
2022/11/07 03:44:07;;;;;;;5.35;2.10;;;10.90;99.90;;;;;;4940925;29;20130;-70
2022/11/07 03:46:32;;;;;;;2.75;1.63;;;10.90;99.90;;;;;;4940622;29;20046;-70
2022/11/07 03:48:58;;;;;;;2.88;1.90;;;10.80;99.90;;;;;;4940806;29;20047;-71
2022/11/07 03:51:24;;;;;;;3.40;1.60;;;10.80;99.90;;;;;;4924735;29;20058;-70
2022/11/07 03:53:50;;;;;;;12.43;2.50;;;10.70;99.90;;;;;;4909083;29;20051;-71
2022/11/07 03:56:16;;;;;;;7.13;2.28;;;10.80;99.90;;;;;;4924757;29;20051;-70
2022/11/07 03:58:41;;;;;;;8.88;2.25;;;10.80;99.90;;;;;;4940411;29;20530;-70
2022/11/07 04:01:09;;;;;;;5.07;2.00;;;10.80;99.90;;;;;;4924593;29;20050;-70
2022/11/07 04:03:35;;;;;;;2.42;1.45;;;10.60;99.90;;;;;;4925017;29;20035;-70
2022/11/07 04:06:00;;;;;;;5.97;1.45;;;10.70;99.90;;;;;;4924523;29;20148;-70
2022/11/07 04:08:26;;;;;;;3.55;1.40;;;10.80;99.90;;;;;;4924449;29;20118;-70
2022/11/07 04:10:52;;;;;;;3.47;1.80;;;10.90;99.90;;;;;;4908675;29;20126;-70
2022/11/07 04:18:46;;;;;;;2.63;1.33;;;10.90;99.90;;;;;;4927085;29;20502;-70
2022/11/07 04:21:12;;;;;;;3.58;2.15;;;10.90;99.90;;;;;;4940317;29;20039;-70
2022/11/07 04:23:37;;;;;;;6.00;2.05;;;11.00;99.90;;;;;;4924072;29;20127;-70
2022/11/07 04:28:47;;;;;;;5.25;2.05;;;11.00;99.90;;;;;;4926748;29;20044;-70
2022/11/07 04:31:13;;;;;;;2.72;2.15;;;11.00;99.90;;;;;;4924313;29;20483;-70
2022/11/07 04:33:39;;;;;;;4.40;1.80;;;11.00;99.90;;;;;;4923954;29;20070;-70
2022/11/07 04:36:05;;;;;;;7.03;2.35;;;10.90;99.90;;;;;;4923804;29;20049;-70
2022/11/07 04:38:30;;;;;;;6.22;1.73;;;10.90;99.90;;;;;;4923901;29;20043;-71
2022/11/07 04:40:57;;;;;;;4.45;2.28;;;11.70;99.90;;;;;;4924034;29;20447;-70
2022/11/07 04:43:24;;;;;;;3.65;1.85;;;11.00;99.90;;;;;;4939889;29;20699;-71
2022/11/07 04:45:51;;;;;;;2.15;1.60;;;11.00;99.90;;;;;;4924376;29;20549;-70
2022/11/07 04:48:16;;;;;;;4.30;1.85;;;11.00;99.90;;;;;;4923913;29;20065;-70
2022/11/07 04:50:43;;;;;;;4.60;2.38;;;11.00;99.90;;;;;;4923661;29;20039;-70
2022/11/07 04:53:14;;;;;;;7.38;2.25;;;11.00;99.90;;;;;;4939476;29;20262;-70
2022/11/07 04:55:40;;;;;;;6.85;2.10;;;11.00;99.90;;;;;;4923833;29;20395;-70
2022/11/07 04:58:06;;;;;;;5.22;1.40;;;11.00;99.90;;;;;;4939334;29;20039;-70
2022/11/07 05:00:32;;;;;;;3.72;2.05;;;11.00;99.90;;;;;;4923449;29;20041;-71
2022/11/07 05:02:57;;;;;;;3.90;1.38;;;11.00;99.90;;;;;;4939058;29;20035;-70
2022/11/07 05:05:23;;;;;;;4.60;2.40;;;11.10;99.90;;;;;;4923536;29;20041;-70
2022/11/07 05:07:49;;;;;;;4.28;1.45;;;11.00;99.90;;;;;;4939101;29;20185;-71
2022/11/07 05:10:26;;;;;;;3.15;2.05;;;11.00;99.90;;;;;;4938442;29;20089;-71
2022/11/07 05:12:53;;;;;;;3.05;1.48;;;11.00;99.90;;;;;;4939112;29;20069;-72
2022/11/07 05:15:19;;;;;;;3.55;1.40;;;11.10;99.90;;;;;;4923519;29;20042;-71
2022/11/07 05:17:45;;;;;;;3.75;1.45;;;11.10;99.90;;;;;;4938944;29;20134;-71
2022/11/07 05:20:35;;;;;;;3.92;2.00;;;11.10;99.90;;;;;;4938841;29;20039;-71
2022/11/07 05:23:14;;;;;;;9.20;2.22;;;11.10;99.90;;;;;;4923355;29;20443;-71
2022/11/07 05:25:47;;;;;;;4.60;1.45;;;11.10;99.90;;;;;;4938860;29;20039;-71
2022/11/07 05:28:16;;;;;;;5.15;1.80;;;11.00;99.90;;;;;;4938794;29;20050;-71
2022/11/07 05:30:43;;;;;;;5.65;1.80;;;11.10;99.90;;;;;;4922857;29;20058;-71
2022/11/07 05:33:10;;;;;;;3.58;2.15;;;11.00;99.90;;;;;;4938768;29;20505;-70
2022/11/07 05:35:36;;;;;;;3.72;2.00;;;11.00;99.90;;;;;;4923109;29;20499;-71
2022/11/07 05:38:02;;;;;;;3.03;1.65;;;11.00;99.90;;;;;;4938616;29;20039;-70
2022/11/07 05:40:28;;;;;;;4.88;2.00;;;11.00;99.90;;;;;;4922733;29;20039;-71
2022/11/07 05:43:02;;;;;;;6.03;1.85;;;11.00;99.90;;;;;;4938738;29;20058;-70
2022/11/07 05:45:29;;;;;;;3.05;1.67;;;11.00;99.90;;;;;;4922594;29;20039;-71
2022/11/07 05:48:04;;;;;;;3.17;1.75;;;10.90;99.90;;;;;;4922603;29;20125;-71
2022/11/07 05:50:30;;;;;;;4.93;2.20;;;11.00;99.90;;;;;;4922576;29;20079;-70
2022/11/07 05:52:56;;;;;;;3.78;1.98;;;11.00;99.90;;;;;;4922591;29;20535;-71
2022/11/07 05:55:23;;;;;;;7.00;2.13;;;11.00;99.90;;;;;;4938292;29;20051;-70
2022/11/07 05:57:49;;;;;;;4.55;1.75;;;11.00;99.90;;;;;;4938374;29;20411;-72
2022/11/07 06:00:15;;;;;;;4.88;1.95;;;11.00;99.90;;;;;;4922449;29;20074;-71
2022/11/07 06:02:41;;;;;;;5.88;2.30;;;11.00;99.90;;;;;;4938242;29;20046;-72
2022/11/07 06:05:07;;;;;;;3.83;1.85;;;11.00;99.90;;;;;;4938189;29;20039;-72
2022/11/07 06:07:38;;;;;;;3.08;1.60;;;11.00;99.90;;;;;;4922358;29;20043;-71
2022/11/07 06:10:05;;;;;;;4.03;1.48;;;11.00;99.90;;;;;;4938425;29;20566;-72
2022/11/07 06:12:31;;;;;;;6.78;2.33;;;11.00;99.90;;;;;;4922427;29;20043;-71
2022/11/07 06:14:57;;;;;;;3.95;1.77;;;11.00;99.90;;;;;;4922278;29;20114;-72
2022/11/07 06:17:23;;;;;;;4.80;1.83;;;10.90;99.90;;;;;;4937907;29;20051;-71
2022/11/07 06:19:48;;;;;;;2.60;1.73;;;11.00;99.90;;;;;;4938324;29;20049;-71
2022/11/07 06:22:14;;;;;;;3.63;2.08;;;10.90;99.90;;;;;;4905607;29;20035;-73
2022/11/07 06:24:40;;;;;;;5.68;1.88;;;10.90;99.90;;;;;;4937294;29;20043;-73
2022/11/07 06:27:06;;;;;;;4.78;1.90;;;10.80;99.90;;;;;;4921266;29;20098;-73
2022/11/07 06:29:31;;;;;;;3.88;1.85;;;10.90;99.90;;;;;;4937140;29;20430;-72
2022/11/07 06:31:57;;;;;;;4.88;1.88;;;10.90;99.90;;;;;;4937544;29;20050;-72
2022/11/07 06:34:23;;;;;;;11.05;2.55;;;10.90;99.90;;;;;;4937044;29;20059;-72
2022/11/07 06:36:55;;;;;;;4.30;1.88;;;10.90;99.90;;;;;;4921312;29;20055;-72
2022/11/07 06:39:21;;;;;;;4.10;1.85;;;10.90;99.90;;;;;;4921145;29;20084;-72
2022/11/07 06:41:50;;;;;;;2.35;1.45;;;10.90;99.90;;;;;;4921421;29;20491;-71
2022/11/07 06:44:16;;;;;;;2.17;1.83;;;11.00;99.90;;;;;;4905388;29;20051;-71
2022/11/07 06:46:45;;;;;;;6.90;2.58;;;10.90;99.90;;;;;;4921423;29;20380;-71
2022/11/07 06:49:14;;;;;;;3.20;1.75;;;10.90;99.90;;;;;;4936739;29;20072;-71
2022/11/07 06:51:41;;;;;;;7.30;2.05;;;10.90;99.90;;;;;;4937151;29;20054;-71
2022/11/07 06:54:06;;;;;;;3.90;2.42;;;10.90;99.90;;;;;;4937044;29;20174;-71
2022/11/07 06:56:32;;;;;;;8.32;2.22;;;10.90;99.90;;;;;;4920922;29;20178;-71
2022/11/07 06:58:58;;;;;;;6.57;2.75;;;10.80;99.90;;;;;;4953996;29;20490;-75
2022/11/07 07:01:23;;;;;;;4.40;1.50;;;11.00;99.90;;;;;;4921256;29;20039;-71
2022/11/07 07:03:49;;;;;;;10.50;2.40;;;10.80;99.90;;;;;;4920886;29;20039;-71
2022/11/07 07:06:16;;;;;;;3.05;2.40;;;10.80;99.90;;;;;;4921190;29;20039;-71
2022/11/07 07:08:42;;;;;;;8.68;2.30;;;10.70;99.90;;;;;;4936650;29;20043;-70
2022/11/07 07:11:11;;;;;;;4.72;2.50;;;10.70;99.90;;;;;;4936934;29;20486;-70
2022/11/07 07:13:38;;;;;;;5.10;2.40;;;10.70;99.90;;;;;;4936596;29;20047;-73
2022/11/07 07:16:04;;;;;;;4.97;2.47;;;10.70;99.90;;;;;;4920809;29;20054;-75
2022/11/07 07:18:30;;;;;;;4.38;2.17;;;10.70;99.90;;;;;;4936611;29;20127;-73
2022/11/07 07:21:10;;;;;;;5.90;2.17;;;10.70;99.90;;;;;;4920940;29;20138;-72
2022/11/07 07:23:37;;;;;;;6.00;4.03;;;10.70;99.90;;;;;;4905869;29;20082;-71
2022/11/07 07:26:10;;;;;;;4.32;2.25;;;10.70;99.90;;;;;;4936511;29;20078;-71
2022/11/07 07:28:36;;;;;;;5.50;3.03;;;10.70;99.90;;;;;;4936429;29;20074;-71
2022/11/07 07:31:19;;;;;;;3.92;2.38;;;10.80;99.90;;;;;;4936516;29;20043;-71
2022/11/07 07:33:47;;;;;;;4.50;2.70;;;10.80;99.90;;;;;;4922475;29;20141;-71
2022/11/07 07:36:13;;;;;;;5.15;2.45;;;10.90;99.90;;;;;;4908211;29;20051;-71
2022/11/07 07:38:39;;;;;;;9.00;2.90;;;10.80;99.90;;;;;;4924142;29;20115;-76
2022/11/07 07:41:06;;;;;;;5.82;2.85;;;11.00;99.90;;;;;;4939788;29;20160;-72
2022/11/07 07:43:32;;;;;;;4.05;2.30;;;10.90;99.90;;;;;;4939789;29;20064;-72
2022/11/07 07:46:03;;;;;;;2.85;1.75;;;10.90;99.90;;;;;;4923813;29;20623;-72
2022/11/07 07:48:30;;;;;;;3.95;2.90;;;10.90;99.90;;;;;;4924074;29;20483;-72
2022/11/07 07:50:56;;;;;;;3.78;2.22;;;11.00;99.90;;;;;;4923775;29;20047;-72
2022/11/07 07:53:21;;;;;;;4.35;2.67;;;11.00;99.90;;;;;;4923811;29;20044;-72
2022/11/07 07:55:47;;;;;;;3.67;2.33;;;11.00;99.90;;;;;;4908073;29;20604;-72
2022/11/07 07:58:13;;;;;;;9.70;3.38;;;11.00;99.90;;;;;;4923721;29;20121;-72
2022/11/07 08:00:39;;;;;;;5.28;2.67;;;11.00;99.90;;;;;;4939496;29;20039;-72
2022/11/07 08:03:10;;;;;;;5.07;2.80;;;11.00;99.90;;;;;;4939407;29;20134;-72
2022/11/07 08:05:38;;;;;;;5.35;2.83;;;11.00;99.90;;;;;;4939155;29;20058;-72
2022/11/07 08:08:05;;;;;;;3.83;2.38;;;11.10;99.90;;;;;;4939349;29;20398;-72
2022/11/07 08:10:31;;;;;;;3.00;2.25;;;11.10;99.90;;;;;;4939277;29;20138;-71
2022/11/07 08:12:57;;;;;;;4.50;2.45;;;11.10;99.90;;;;;;4923521;29;20054;-72
2022/11/07 08:15:23;;;;;;;5.55;2.42;;;11.10;99.90;;;;;;4923431;29;20047;-72
2022/11/07 08:17:49;;;;;;;5.57;1.85;;;11.10;99.90;;;;;;4938926;29;20050;-72
2022/11/07 08:20:19;;;;;;;6.32;2.72;;;11.20;99.90;;;;;;4923225;29;20122;-72
2022/11/07 08:22:45;;;;;;;5.63;2.15;;;11.20;99.90;;;;;;4923142;29;20051;-72
2022/11/07 08:25:11;;;;;;;3.28;2.00;;;11.20;99.90;;;;;;4907818;29;20047;-72
2022/11/07 08:27:37;;;;;;;6.63;2.53;;;11.30;99.90;;;;;;4938954;29;20113;-72
2022/11/07 08:30:06;;;;;;;4.60;2.20;;;11.30;99.90;;;;;;4939279;29;20498;-72
2022/11/07 08:32:31;;;;;;;5.22;2.08;;;11.30;99.90;;;;;;4938978;29;20051;-71
2022/11/07 08:34:57;;;;;;;4.05;2.15;;;11.40;99.90;;;;;;4923073;29;20051;-71
2022/11/07 08:37:24;;;;;;;2.50;1.73;;;11.40;99.90;;;;;;4938943;29;20047;-72
2022/11/07 08:39:49;;;;;;;4.05;1.70;;;11.50;99.90;;;;;;4938758;29;20035;-72
2022/11/07 08:42:15;;;;;;;9.52;2.75;;;11.50;99.90;;;;;;4938669;29;20109;-72
2022/11/07 08:44:41;;;;;;;7.32;2.22;;;11.50;99.90;;;;;;4906039;29;20094;-72
2022/11/07 08:47:07;;;;;;;6.25;1.88;;;11.60;99.90;;;;;;4938875;29;20098;-72
2022/11/07 08:49:33;;;;;;;4.68;1.83;;;11.70;99.90;;;;;;4938478;29;20129;-72
2022/11/07 08:52:00;;;;;;;9.50;2.45;;;11.80;99.90;;;;;;4922925;29;20463;-72
2022/11/07 08:54:27;;;;;;;5.13;2.13;;;11.80;99.90;;;;;;4938530;29;20125;-71
2022/11/07 08:56:53;;;;;;;5.65;1.90;;;11.90;99.90;;;;;;4938615;29;20487;-71
2022/11/07 08:59:20;;;;;;;5.82;2.17;;;11.90;99.90;;;;;;4922548;29;20081;-72
2022/11/07 09:01:46;;;;;;;6.00;1.95;;;11.90;99.90;;;;;;4938569;29;20055;-71
2022/11/07 09:04:12;;;;;;;5.20;1.85;;;12.00;99.90;;;;;;4938288;29;20035;-72
2022/11/07 09:06:37;;;;;;;2.72;1.67;;;12.00;99.90;;;;;;4922482;29;20051;-72
2022/11/07 09:09:03;;;;;;;6.68;2.03;;;12.00;99.90;;;;;;4922425;29;20554;-72
2022/11/07 09:11:29;;;;;;;3.03;1.58;;;12.00;99.90;;;;;;4938440;29;20392;-73
2022/11/07 09:13:55;;;;;;;2.05;1.50;;;12.10;99.90;;;;;;4922386;29;20043;-72
2022/11/07 09:16:22;;;;;;;7.47;1.92;;;12.00;99.90;;;;;;4938053;29;20039;-73
2022/11/07 09:18:50;;;;;;;6.43;1.27;;;12.10;99.90;;;;;;4938332;29;20047;-73
2022/11/07 09:21:16;;;;;;;5.55;1.90;;;12.10;99.90;;;;;;4938055;29;20054;-71
2022/11/07 09:23:42;;;;;;;1.20;1.10;;;12.10;99.90;;;;;;4922211;29;20483;-71
2022/11/07 09:26:08;;;;;;;2.95;1.52;;;12.10;99.90;;;;;;4937764;29;20537;-72
2022/11/07 09:28:34;;;;;;;5.35;1.85;;;12.10;99.90;;;;;;4937952;29;20043;-72
2022/11/07 09:31:01;;;;;;;4.82;1.88;;;12.20;99.90;;;;;;4938089;29;20400;-72
2022/11/07 09:33:28;;;;;;;3.75;1.63;;;12.00;99.90;;;;;;4921890;28;20047;-72
2022/11/07 09:35:54;;;;;;;8.02;2.17;;;12.00;99.90;;;;;;4937616;29;20114;-71
2022/11/07 09:38:20;;;;;;;3.47;1.50;;;11.90;99.90;;;;;;4937620;29;20043;-72
2022/11/07 09:41:17;;;;;;;2.47;1.65;;;11.80;99.90;;;;;;4937711;29;20047;-72
2022/11/07 09:44:02;;;;;;;2.83;1.85;;;11.80;99.90;;;;;;4933748;29;20115;-72
2022/11/07 09:46:52;;;;;;;7.55;1.92;;;11.70;99.90;;;;;;4921979;29;20490;-72
2022/11/07 09:49:24;;;;;;;3.08;1.77;;;11.70;99.90;;;;;;4937455;29;20130;-72
2022/11/07 09:52:05;;;;;;;6.28;2.08;;;11.70;99.90;;;;;;4921959;29;20082;-73
2022/11/07 09:54:37;;;;;;;9.80;3.33;;;11.70;99.90;;;;;;4937473;29;20039;-73
2022/11/07 09:57:03;;;;;;;6.15;1.80;;;11.80;99.90;;;;;;4921237;29;20138;-73
2022/11/07 09:59:40;;;;;;;4.63;1.95;;;11.80;99.90;;;;;;4937317;29;20122;-73
2022/11/07 10:02:16;;;;;;;12.23;2.05;;;11.90;99.90;;;;;;4921559;29;20043;-73
2022/11/07 10:04:43;;;;;;;2.85;1.60;;;11.90;99.90;;;;;;4937416;29;20035;-72
2022/11/07 10:07:39;;;;;;;3.90;2.13;;;12.00;99.90;;;;;;4937459;29;20039;-72
2022/11/07 10:10:19;;;;;;;5.57;2.22;;;12.00;99.90;;;;;;4937272;29;20133;-73
2022/11/07 10:13:23;;;;;;;6.47;1.52;;;12.00;99.90;;;;;;4937329;29;20050;-73
2022/11/07 10:16:03;;;;;;;9.98;2.03;;;12.10;99.90;;;;;;4914958;29;20047;-72
2022/11/07 10:18:52;;;;;;;2.33;1.70;;;12.10;99.90;;;;;;4937366;29;20513;-72
2022/11/07 10:21:41;;;;;;;3.70;1.85;;;12.20;99.90;;;;;;4937468;29;20086;-72
2022/11/07 10:24:25;;;;;;;5.45;1.80;;;12.20;99.90;;;;;;4921245;29;20105;-72
2022/11/07 10:26:51;;;;;;;6.65;2.30;;;12.20;99.90;;;;;;4937067;29;20138;-71
2022/11/07 10:29:19;;;;;;;3.17;2.00;;;12.30;99.90;;;;;;4921517;29;20422;-71
2022/11/07 10:32:13;;;;;;;3.67;1.50;;;12.30;99.90;;;;;;4921467;29;20065;-71
2022/11/07 10:34:48;;;;;;;3.90;1.58;;;12.40;99.90;;;;;;4920840;29;20059;-71
2022/11/07 10:37:13;;;;;;;9.00;2.03;;;12.70;99.90;;;;;;4937027;29;20051;-71
2022/11/07 10:39:39;;;;;;;3.72;1.58;;;12.60;99.90;;;;;;4905480;29;20039;-71
2022/11/07 10:42:05;;;;;;;5.00;1.45;;;12.70;99.90;;;;;;4921108;29;20122;-71
2022/11/07 10:44:32;;;;;;;9.20;1.83;;;12.70;99.90;;;;;;4937108;29;20047;-71
2022/11/07 10:46:58;;;;;;;3.55;1.55;;;12.80;99.90;;;;;;4936971;29;20506;-71
2022/11/07 10:49:29;;;;;;;5.82;1.92;;;12.80;99.90;;;;;;4937163;29;20130;-71
2022/11/07 10:52:09;;;;;;;2.58;1.45;;;12.90;99.90;;;;;;4936870;29;20043;-71
2022/11/07 10:54:35;;;;;;;3.42;1.55;;;12.90;99.90;;;;;;4936979;29;20446;-71
2022/11/07 10:57:19;;;;;;;5.88;1.80;;;13.00;99.90;;;;;;4936607;29;20049;-71
2022/11/07 10:59:50;;;;;;;5.72;1.50;;;13.10;99.90;;;;;;4937066;29;20071;-71
2022/11/07 11:02:22;;;;;;;5.78;1.73;;;13.50;99.90;;;;;;4920945;29;20090;-76
2022/11/07 11:04:56;;;;;;;12.70;1.95;;;13.20;99.90;;;;;;4936920;29;20586;-72
2022/11/07 11:07:40;;;;;;;3.13;1.58;;;;;;;;;;4920783;29;20051;-71
2022/11/07 11:10:25;;;;;;;3.38;1.45;;;13.10;99.90;;;;;;4924732;29;20051;-72
2022/11/07 11:12:51;;;;;;;3.63;1.30;;;13.20;99.90;;;;;;4940665;29;20050;-72
2022/11/07 11:15:22;;;;;;;5.80;1.52;;;13.30;99.90;;;;;;4940271;29;20054;-72
2022/11/07 11:18:01;;;;;;;3.53;1.38;;;13.30;99.90;;;;;;4940117;29;20051;-72
2022/11/07 11:20:41;;;;;;;2.08;1.02;;;13.40;99.90;;;;;;4924784;29;20557;-72
2022/11/07 11:23:34;;;;;;;3.45;1.55;;;13.40;99.90;;;;;;4940360;29;20070;-72
2022/11/07 11:26:05;;;;;;;4.40;1.65;;;13.50;99.90;;;;;;4940419;29;20422;-72
2022/11/07 11:28:55;;;;;;;5.80;2.05;;;13.50;99.90;;;;;;4940126;29;20106;-71
2022/11/07 11:31:48;;;;;;;4.07;1.58;;;13.60;99.90;;;;;;4924296;29;20047;-71
2022/11/07 11:34:21;;;;;;;3.63;1.23;;;13.60;99.90;;;;;;4939261;28;20137;-71
2022/11/07 11:36:59;;;;;;;5.75;1.45;;;13.60;99.90;;;;;;4940269;29;20051;-71
2022/11/07 11:39:44;;;;;;;4.65;1.85;;;13.60;99.90;;;;;;4940041;29;20039;-71
2022/11/07 11:42:39;;;;;;;3.00;1.23;;;13.60;99.90;;;;;;4940193;29;20127;-71
2022/11/07 11:45:39;;;;;;;2.45;1.27;;;13.70;99.90;;;;;;4912428;29;20059;-71
2022/11/07 11:48:23;;;;;;;4.15;1.42;;;13.70;99.90;;;;;;4895541;29;20528;-71
2022/11/07 11:51:11;;;;;;;4.18;1.27;;;13.80;99.90;;;;;;4939875;29;20043;-71
2022/11/07 11:53:36;;;;;;;3.42;1.77;;;13.80;99.90;;;;;;4939961;29;20478;-72
2022/11/07 11:56:05;;;;;;;3.22;1.30;;;13.80;99.90;;;;;;4924076;29;20102;-72
2022/11/07 11:59:08;;;;;;;4.93;1.33;;;13.80;99.90;;;;;;4939645;29;20049;-71
2022/11/07 12:01:58;;;;;;;2.38;1.25;;;13.80;99.90;;;;;;4939653;29;20090;-71
2022/11/07 12:04:41;;;;;;;6.53;1.92;;;13.80;99.90;;;;;;4939637;29;20043;-71
2022/11/07 12:07:22;;;;;;;3.13;1.35;;;13.80;99.90;;;;;;4923545;29;20043;-71
2022/11/07 12:10:07;;;;;;;2.00;1.15;;;13.80;99.90;;;;;;4923743;29;20051;-71
2022/11/07 12:12:53;;;;;;;4.72;0.95;;;13.80;99.90;;;;;;4939990;29;20593;-71
2022/11/07 12:15:31;;;;;;;2.60;1.40;;;13.90;99.90;;;;;;4923183;29;20499;-72
2022/11/07 12:18:20;;;;;;;4.13;1.58;;;13.90;99.90;;;;;;4939259;29;20039;-72
2022/11/07 12:21:16;;;;;;;3.47;2.00;;;13.90;99.90;;;;;;4923206;29;20050;-71
2022/11/07 12:24:00;;;;;;;3.20;1.45;;;13.90;99.90;;;;;;4923394;29;20046;-72
2022/11/07 12:26:35;;;;;;;4.20;1.48;;;13.90;99.90;;;;;;4939343;29;20384;-72
2022/11/07 12:29:34;;;;;;;4.63;1.55;;;13.70;99.90;;;;;;4939077;29;20043;-72
2022/11/07 12:32:18;;;;;;;3.00;1.58;;;13.70;99.90;;;;;;4938949;29;20050;-72
2022/11/07 12:35:21;;;;;;;6.57;1.13;;;13.70;99.90;;;;;;4922966;29;20062;-72
2022/11/07 12:37:56;;;;;;;3.55;1.40;;;13.70;99.90;;;;;;4922998;29;20133;-72
2022/11/07 12:40:41;;;;;;;1.90;1.05;;;13.80;99.90;;;;;;4923307;29;20495;-72
2022/11/07 12:43:26;;;;;;;3.50;1.20;;;13.80;99.90;;;;;;4938908;29;20040;-72
2022/11/07 12:46:00;;;;;;;1.55;1.00;;;14.00;99.90;;;;;;4939111;29;20483;-72
2022/11/07 12:48:57;;;;;;;2.10;1.17;;;14.00;99.90;;;;;;4938967;29;20047;-71
2022/11/07 12:51:41;;;;;;;3.72;1.48;;;14.10;99.90;;;;;;4922796;29;20043;-72
2022/11/07 12:54:20;;;;;;;3.97;1.40;;;14.20;99.90;;;;;;4938563;29;20043;-71
2022/11/07 12:56:48;;;;;;;3.33;1.65;;;14.20;99.90;;;;;;4938606;29;20133;-71
2022/11/07 12:59:25;;;;;;;7.25;1.67;;;14.10;99.90;;;;;;4938472;29;20039;-72
2022/11/07 13:02:10;;;;;;;3.90;1.33;;;14.20;99.90;;;;;;4938486;29;20042;-71
2022/11/07 13:04:52;;;;;;;7.10;1.40;;;14.20;99.90;;;;;;4922678;29;20051;-72
2022/11/07 13:07:39;;;;;;;5.30;2.10;;;14.10;99.90;;;;;;4938383;29;20127;-71
2022/11/07 13:10:59;;;;;;;6.43;2.60;;;14.10;99.90;;;;;;4922490;29;20039;-71
2022/11/07 13:13:39;;;;;;;4.28;3.15;;;14.10;99.90;;;;;;4846637;29;20056;-71
2022/11/07 13:16:25;;;;;;;4.88;1.40;;;14.10;99.90;;;;;;4922780;29;20046;-71
2022/11/07 13:18:51;;;;;;;7.18;1.40;;;14.00;99.90;;;;;;4938264;29;20130;-71